sensor_id;sensor_type;location;lat;lon;timestamp;P1;durP1;ratioP1;P2;durP2;ratioP2
51489;SDS011;57752;53.574;9.736;2023-08-06T00:02:11;13.40;;;5.38;;
51489;SDS011;57752;53.574;9.736;2023-08-06T00:07:11;13.07;;;5.55;;
51489;SDS011;57752;53.574;9.736;2023-08-06T00:12:12;12.90;;;5.57;;
51489;SDS011;57752;53.574;9.736;2023-08-06T00:17:12;11.88;;;4.70;;
51489;SDS011;57752;53.574;9.736;2023-08-06T00:22:13;13.27;;;5.90;;
51489;SDS011;57752;53.574;9.736;2023-08-06T00:27:13;14.27;;;6.18;;
51489;SDS011;57752;53.574;9.736;2023-08-06T00:32:13;12.50;;;4.97;;
51489;SDS011;57752;53.574;9.736;2023-08-06T00:37:13;12.48;;;5.65;;
51489;SDS011;57752;53.574;9.736;2023-08-06T00:42:13;14.00;;;5.80;;
51489;SDS011;57752;53.574;9.736;2023-08-06T00:47:13;13.10;;;5.03;;
51489;SDS011;57752;53.574;9.736;2023-08-06T00:52:14;14.00;;;6.57;;
51489;SDS011;57752;53.574;9.736;2023-08-06T00:57:14;12.75;;;4.80;;
51489;SDS011;57752;53.574;9.736;2023-08-06T01:02:14;11.00;;;4.60;;
51489;SDS011;57752;53.574;9.736;2023-08-06T01:17:35;14.55;;;6.43;;
51489;SDS011;57752;53.574;9.736;2023-08-06T01:22:36;11.35;;;5.10;;
51489;SDS011;57752;53.574;9.736;2023-08-06T01:27:49;11.45;;;5.00;;
51489;SDS011;57752;53.574;9.736;2023-08-06T01:32:49;13.23;;;5.72;;
51489;SDS011;57752;53.574;9.736;2023-08-06T01:37:50;14.07;;;6.32;;
51489;SDS011;57752;53.574;9.736;2023-08-06T01:42:51;14.35;;;6.30;;
51489;SDS011;57752;53.574;9.736;2023-08-06T01:47:51;15.60;;;7.53;;
51489;SDS011;57752;53.574;9.736;2023-08-06T01:52:51;11.60;;;4.80;;
51489;SDS011;57752;53.574;9.736;2023-08-06T01:57:51;13.32;;;6.10;;
51489;SDS011;57752;53.574;9.736;2023-08-06T02:02:51;12.82;;;6.18;;
51489;SDS011;57752;53.574;9.736;2023-08-06T02:07:51;12.60;;;6.07;;
51489;SDS011;57752;53.574;9.736;2023-08-06T02:12:52;11.98;;;5.53;;
51489;SDS011;57752;53.574;9.736;2023-08-06T02:17:52;11.45;;;5.13;;
51489;SDS011;57752;53.574;9.736;2023-08-06T02:22:52;16.75;;;7.60;;
51489;SDS011;57752;53.574;9.736;2023-08-06T02:27:52;14.48;;;6.50;;
51489;SDS011;57752;53.574;9.736;2023-08-06T02:32:52;14.68;;;6.85;;
51489;SDS011;57752;53.574;9.736;2023-08-06T02:37:52;15.73;;;7.68;;
51489;SDS011;57752;53.574;9.736;2023-08-06T02:42:52;17.55;;;8.57;;
51489;SDS011;57752;53.574;9.736;2023-08-06T02:47:52;19.50;;;9.85;;
51489;SDS011;57752;53.574;9.736;2023-08-06T02:52:53;19.45;;;8.63;;
51489;SDS011;57752;53.574;9.736;2023-08-06T02:57:53;17.15;;;8.38;;
51489;SDS011;57752;53.574;9.736;2023-08-06T03:02:53;21.40;;;10.63;;
51489;SDS011;57752;53.574;9.736;2023-08-06T03:07:53;16.70;;;9.32;;
51489;SDS011;57752;53.574;9.736;2023-08-06T03:12:53;22.25;;;11.02;;
51489;SDS011;57752;53.574;9.736;2023-08-06T03:17:55;22.77;;;10.80;;
51489;SDS011;57752;53.574;9.736;2023-08-06T03:22:55;17.17;;;8.18;;
51489;SDS011;57752;53.574;9.736;2023-08-06T03:27:55;19.30;;;9.88;;
51489;SDS011;57752;53.574;9.736;2023-08-06T03:32:55;20.35;;;9.95;;
51489;SDS011;57752;53.574;9.736;2023-08-06T03:37:56;22.40;;;11.07;;
51489;SDS011;57752;53.574;9.736;2023-08-06T03:42:56;21.30;;;10.85;;
51489;SDS011;57752;53.574;9.736;2023-08-06T03:47:56;21.92;;;10.43;;
51489;SDS011;57752;53.574;9.736;2023-08-06T03:52:56;24.48;;;12.15;;
51489;SDS011;57752;53.574;9.736;2023-08-06T03:57:56;24.70;;;12.32;;
51489;SDS011;57752;53.574;9.736;2023-08-06T04:02:56;19.65;;;9.75;;
51489;SDS011;57752;53.574;9.736;2023-08-06T04:07:57;17.63;;;7.78;;
51489;SDS011;57752;53.574;9.736;2023-08-06T04:12:57;17.00;;;8.73;;
51489;SDS011;57752;53.574;9.736;2023-08-06T04:17:57;18.55;;;9.18;;
51489;SDS011;57752;53.574;9.736;2023-08-06T04:22:57;18.95;;;9.30;;
51489;SDS011;57752;53.574;9.736;2023-08-06T04:27:57;13.90;;;7.03;;
51489;SDS011;57752;53.574;9.736;2023-08-06T04:32:57;15.77;;;7.88;;
51489;SDS011;57752;53.574;9.736;2023-08-06T04:37:58;18.90;;;9.70;;
51489;SDS011;57752;53.574;9.736;2023-08-06T04:42:58;18.85;;;8.57;;
51489;SDS011;57752;53.574;9.736;2023-08-06T04:47:58;14.13;;;7.07;;
51489;SDS011;57752;53.574;9.736;2023-08-06T04:52:58;18.25;;;8.10;;
51489;SDS011;57752;53.574;9.736;2023-08-06T04:57:58;15.02;;;7.45;;
51489;SDS011;57752;53.574;9.736;2023-08-06T05:02:59;13.40;;;6.40;;
51489;SDS011;57752;53.574;9.736;2023-08-06T05:07:59;15.35;;;8.13;;
51489;SDS011;57752;53.574;9.736;2023-08-06T05:12:59;20.02;;;9.18;;
51489;SDS011;57752;53.574;9.736;2023-08-06T05:18:00;17.58;;;7.93;;
51489;SDS011;57752;53.574;9.736;2023-08-06T05:23:00;22.27;;;9.30;;
51489;SDS011;57752;53.574;9.736;2023-08-06T05:28:01;18.50;;;9.68;;
51489;SDS011;57752;53.574;9.736;2023-08-06T05:33:01;18.58;;;8.93;;
51489;SDS011;57752;53.574;9.736;2023-08-06T05:38:01;22.48;;;10.20;;
51489;SDS011;57752;53.574;9.736;2023-08-06T05:43:02;18.52;;;9.48;;
51489;SDS011;57752;53.574;9.736;2023-08-06T05:48:02;16.35;;;7.45;;
51489;SDS011;57752;53.574;9.736;2023-08-06T05:53:02;16.42;;;8.45;;
51489;SDS011;57752;53.574;9.736;2023-08-06T05:58:02;19.25;;;8.38;;
51489;SDS011;57752;53.574;9.736;2023-08-06T06:03:02;17.52;;;8.48;;
51489;SDS011;57752;53.574;9.736;2023-08-06T06:08:03;16.60;;;8.60;;
51489;SDS011;57752;53.574;9.736;2023-08-06T06:13:03;15.57;;;6.70;;
51489;SDS011;57752;53.574;9.736;2023-08-06T06:18:03;13.25;;;6.57;;
51489;SDS011;57752;53.574;9.736;2023-08-06T06:23:03;14.40;;;6.82;;
51489;SDS011;57752;53.574;9.736;2023-08-06T06:28:03;16.10;;;7.40;;
51489;SDS011;57752;53.574;9.736;2023-08-06T06:33:03;16.65;;;7.72;;
51489;SDS011;57752;53.574;9.736;2023-08-06T06:38:04;15.52;;;7.50;;
51489;SDS011;57752;53.574;9.736;2023-08-06T06:43:04;16.90;;;7.03;;
51489;SDS011;57752;53.574;9.736;2023-08-06T06:48:04;16.65;;;7.47;;
51489;SDS011;57752;53.574;9.736;2023-08-06T06:53:04;13.75;;;5.82;;
51489;SDS011;57752;53.574;9.736;2023-08-06T06:58:04;14.77;;;6.80;;
51489;SDS011;57752;53.574;9.736;2023-08-06T07:03:05;14.13;;;5.90;;
51489;SDS011;57752;53.574;9.736;2023-08-06T07:08:05;18.58;;;7.95;;
51489;SDS011;57752;53.574;9.736;2023-08-06T07:13:05;14.75;;;5.82;;
51489;SDS011;57752;53.574;9.736;2023-08-06T07:18:05;15.48;;;7.40;;
51489;SDS011;57752;53.574;9.736;2023-08-06T07:23:05;17.88;;;8.20;;
51489;SDS011;57752;53.574;9.736;2023-08-06T07:28:05;17.40;;;7.55;;
51489;SDS011;57752;53.574;9.736;2023-08-06T07:33:06;17.50;;;7.72;;
51489;SDS011;57752;53.574;9.736;2023-08-06T07:38:06;17.08;;;7.50;;
51489;SDS011;57752;53.574;9.736;2023-08-06T07:43:06;14.95;;;7.00;;
51489;SDS011;57752;53.574;9.736;2023-08-06T07:48:06;19.55;;;7.72;;
51489;SDS011;57752;53.574;9.736;2023-08-06T07:53:06;16.08;;;6.93;;
51489;SDS011;57752;53.574;9.736;2023-08-06T07:58:07;20.40;;;7.30;;
51489;SDS011;57752;53.574;9.736;2023-08-06T08:03:07;15.45;;;7.32;;
51489;SDS011;57752;53.574;9.736;2023-08-06T08:08:08;13.77;;;6.18;;
51489;SDS011;57752;53.574;9.736;2023-08-06T08:13:08;18.92;;;7.88;;
51489;SDS011;57752;53.574;9.736;2023-08-06T08:18:08;15.50;;;6.97;;
51489;SDS011;57752;53.574;9.736;2023-08-06T08:23:08;14.30;;;7.72;;
51489;SDS011;57752;53.574;9.736;2023-08-06T08:28:09;17.48;;;7.25;;
51489;SDS011;57752;53.574;9.736;2023-08-06T08:33:09;17.55;;;7.43;;
51489;SDS011;57752;53.574;9.736;2023-08-06T08:38:09;14.68;;;6.50;;
51489;SDS011;57752;53.574;9.736;2023-08-06T08:43:09;14.23;;;6.95;;
51489;SDS011;57752;53.574;9.736;2023-08-06T08:48:11;16.23;;;7.05;;
51489;SDS011;57752;53.574;9.736;2023-08-06T08:53:12;13.13;;;6.30;;
51489;SDS011;57752;53.574;9.736;2023-08-06T08:58:14;19.70;;;7.70;;
51489;SDS011;57752;53.574;9.736;2023-08-06T09:03:14;14.07;;;7.38;;
51489;SDS011;57752;53.574;9.736;2023-08-06T09:08:17;16.27;;;7.20;;
51489;SDS011;57752;53.574;9.736;2023-08-06T09:13:17;15.30;;;7.55;;
51489;SDS011;57752;53.574;9.736;2023-08-06T09:18:26;13.63;;;7.10;;
51489;SDS011;57752;53.574;9.736;2023-08-06T09:23:28;16.13;;;6.65;;
51489;SDS011;57752;53.574;9.736;2023-08-06T09:28:36;17.02;;;7.53;;
51489;SDS011;57752;53.574;9.736;2023-08-06T09:33:38;15.50;;;6.93;;
51489;SDS011;57752;53.574;9.736;2023-08-06T09:38:39;14.52;;;6.65;;
51489;SDS011;57752;53.574;9.736;2023-08-06T09:43:40;16.90;;;7.23;;
51489;SDS011;57752;53.574;9.736;2023-08-06T09:48:44;16.73;;;6.73;;
51489;SDS011;57752;53.574;9.736;2023-08-06T09:53:45;15.73;;;7.65;;
51489;SDS011;57752;53.574;9.736;2023-08-06T09:58:46;13.25;;;6.72;;
51489;SDS011;57752;53.574;9.736;2023-08-06T10:03:47;14.80;;;6.32;;
51489;SDS011;57752;53.574;9.736;2023-08-06T10:08:47;13.90;;;6.82;;
51489;SDS011;57752;53.574;9.736;2023-08-06T10:13:47;14.23;;;6.43;;
51489;SDS011;57752;53.574;9.736;2023-08-06T10:18:48;15.15;;;6.40;;
51489;SDS011;57752;53.574;9.736;2023-08-06T10:23:53;13.60;;;6.38;;
51489;SDS011;57752;53.574;9.736;2023-08-06T10:28:53;14.32;;;6.00;;
51489;SDS011;57752;53.574;9.736;2023-08-06T10:33:53;14.60;;;5.65;;
51489;SDS011;57752;53.574;9.736;2023-08-06T10:38:54;14.40;;;6.35;;
51489;SDS011;57752;53.574;9.736;2023-08-06T10:44:07;12.70;;;5.65;;
51489;SDS011;57752;53.574;9.736;2023-08-06T10:49:08;14.93;;;5.95;;
51489;SDS011;57752;53.574;9.736;2023-08-06T10:54:08;12.85;;;5.72;;
51489;SDS011;57752;53.574;9.736;2023-08-06T10:59:08;14.68;;;5.60;;
51489;SDS011;57752;53.574;9.736;2023-08-06T11:04:10;12.63;;;5.60;;
51489;SDS011;57752;53.574;9.736;2023-08-06T11:09:15;14.45;;;6.32;;
51489;SDS011;57752;53.574;9.736;2023-08-06T11:14:16;11.43;;;5.07;;
51489;SDS011;57752;53.574;9.736;2023-08-06T11:19:16;13.40;;;5.55;;
51489;SDS011;57752;53.574;9.736;2023-08-06T11:24:17;13.68;;;5.65;;
51489;SDS011;57752;53.574;9.736;2023-08-06T11:29:17;12.40;;;6.20;;
51489;SDS011;57752;53.574;9.736;2023-08-06T11:34:17;13.93;;;5.40;;
51489;SDS011;57752;53.574;9.736;2023-08-06T11:39:17;13.00;;;5.38;;
51489;SDS011;57752;53.574;9.736;2023-08-06T11:44:19;14.40;;;6.03;;
51489;SDS011;57752;53.574;9.736;2023-08-06T11:49:19;12.18;;;5.50;;
51489;SDS011;57752;53.574;9.736;2023-08-06T11:54:31;11.95;;;5.50;;
51489;SDS011;57752;53.574;9.736;2023-08-06T11:59:33;13.10;;;5.65;;
51489;SDS011;57752;53.574;9.736;2023-08-06T12:09:53;11.05;;;5.15;;
51489;SDS011;57752;53.574;9.736;2023-08-06T12:14:53;12.57;;;5.22;;
51489;SDS011;57752;53.574;9.736;2023-08-06T12:19:54;13.38;;;5.30;;
51489;SDS011;57752;53.574;9.736;2023-08-06T12:24:54;11.20;;;5.07;;
51489;SDS011;57752;53.574;9.736;2023-08-06T12:29:54;12.18;;;5.55;;
51489;SDS011;57752;53.574;9.736;2023-08-06T12:34:54;12.68;;;5.43;;
51489;SDS011;57752;53.574;9.736;2023-08-06T12:39:54;13.05;;;5.53;;
51489;SDS011;57752;53.574;9.736;2023-08-06T12:44:54;12.25;;;5.55;;
51489;SDS011;57752;53.574;9.736;2023-08-06T12:49:55;13.38;;;5.47;;
51489;SDS011;57752;53.574;9.736;2023-08-06T12:54:55;13.05;;;5.57;;
51489;SDS011;57752;53.574;9.736;2023-08-06T12:59:55;13.25;;;5.50;;
51489;SDS011;57752;53.574;9.736;2023-08-06T13:04:55;11.88;;;5.10;;
51489;SDS011;57752;53.574;9.736;2023-08-06T13:09:55;11.48;;;4.93;;
51489;SDS011;57752;53.574;9.736;2023-08-06T13:14:55;12.32;;;5.20;;
51489;SDS011;57752;53.574;9.736;2023-08-06T13:19:58;12.80;;;5.40;;
51489;SDS011;57752;53.574;9.736;2023-08-06T13:24:58;13.10;;;5.43;;
51489;SDS011;57752;53.574;9.736;2023-08-06T13:29:58;13.75;;;6.15;;
51489;SDS011;57752;53.574;9.736;2023-08-06T13:34:58;12.95;;;6.18;;
51489;SDS011;57752;53.574;9.736;2023-08-06T13:39:59;11.77;;;5.28;;
51489;SDS011;57752;53.574;9.736;2023-08-06T13:44:59;14.13;;;6.15;;
51489;SDS011;57752;53.574;9.736;2023-08-06T13:50:03;13.75;;;6.07;;
51489;SDS011;57752;53.574;9.736;2023-08-06T13:55:03;12.13;;;5.80;;
51489;SDS011;57752;53.574;9.736;2023-08-06T14:00:04;14.00;;;5.50;;
51489;SDS011;57752;53.574;9.736;2023-08-06T14:05:05;13.47;;;5.87;;
51489;SDS011;57752;53.574;9.736;2023-08-06T14:10:06;12.40;;;5.90;;
51489;SDS011;57752;53.574;9.736;2023-08-06T14:15:06;13.88;;;5.43;;
51489;SDS011;57752;53.574;9.736;2023-08-06T14:20:06;13.20;;;5.25;;
51489;SDS011;57752;53.574;9.736;2023-08-06T14:30:09;11.80;;;4.88;;
51489;SDS011;57752;53.574;9.736;2023-08-06T14:35:09;10.95;;;4.80;;
51489;SDS011;57752;53.574;9.736;2023-08-06T14:40:10;11.57;;;4.93;;
51489;SDS011;57752;53.574;9.736;2023-08-06T14:45:10;10.73;;;4.03;;
51489;SDS011;57752;53.574;9.736;2023-08-06T14:50:10;11.63;;;4.22;;
51489;SDS011;57752;53.574;9.736;2023-08-06T14:55:10;11.02;;;4.03;;
51489;SDS011;57752;53.574;9.736;2023-08-06T15:00:11;10.00;;;3.72;;
51489;SDS011;57752;53.574;9.736;2023-08-06T15:05:11;11.88;;;3.85;;
51489;SDS011;57752;53.574;9.736;2023-08-06T15:10:11;10.50;;;3.60;;
51489;SDS011;57752;53.574;9.736;2023-08-06T15:15:11;10.75;;;3.75;;
51489;SDS011;57752;53.574;9.736;2023-08-06T15:20:12;12.38;;;3.85;;
51489;SDS011;57752;53.574;9.736;2023-08-06T15:25:12;9.70;;;3.50;;
51489;SDS011;57752;53.574;9.736;2023-08-06T15:30:12;11.10;;;3.70;;
51489;SDS011;57752;53.574;9.736;2023-08-06T15:35:12;9.10;;;3.40;;
51489;SDS011;57752;53.574;9.736;2023-08-06T15:40:13;9.63;;;3.40;;
51489;SDS011;57752;53.574;9.736;2023-08-06T15:45:13;12.48;;;3.72;;
51489;SDS011;57752;53.574;9.736;2023-08-06T15:50:13;11.60;;;3.80;;
51489;SDS011;57752;53.574;9.736;2023-08-06T15:55:13;11.48;;;3.90;;
51489;SDS011;57752;53.574;9.736;2023-08-06T16:00:14;11.50;;;3.80;;
51489;SDS011;57752;53.574;9.736;2023-08-06T16:05:14;12.02;;;3.72;;
51489;SDS011;57752;53.574;9.736;2023-08-06T16:10:14;10.20;;;3.63;;
51489;SDS011;57752;53.574;9.736;2023-08-06T16:15:14;10.75;;;3.35;;
51489;SDS011;57752;53.574;9.736;2023-08-06T16:20:19;10.80;;;3.72;;
51489;SDS011;57752;53.574;9.736;2023-08-06T16:25:19;10.48;;;3.80;;
51489;SDS011;57752;53.574;9.736;2023-08-06T16:30:19;11.25;;;4.05;;
51489;SDS011;57752;53.574;9.736;2023-08-06T16:35:19;11.50;;;4.07;;
51489;SDS011;57752;53.574;9.736;2023-08-06T16:40:19;12.90;;;4.70;;
51489;SDS011;57752;53.574;9.736;2023-08-06T16:45:20;12.52;;;5.10;;
51489;SDS011;57752;53.574;9.736;2023-08-06T16:50:20;12.52;;;4.10;;
51489;SDS011;57752;53.574;9.736;2023-08-06T16:55:20;12.38;;;4.07;;
51489;SDS011;57752;53.574;9.736;2023-08-06T17:00:20;11.43;;;3.70;;
51489;SDS011;57752;53.574;9.736;2023-08-06T17:05:21;10.52;;;3.65;;
51489;SDS011;57752;53.574;9.736;2023-08-06T17:10:21;13.07;;;4.00;;
51489;SDS011;57752;53.574;9.736;2023-08-06T17:15:22;10.02;;;3.80;;
51489;SDS011;57752;53.574;9.736;2023-08-06T17:20:22;11.63;;;3.97;;
51489;SDS011;57752;53.574;9.736;2023-08-06T17:25:23;10.02;;;3.60;;
51489;SDS011;57752;53.574;9.736;2023-08-06T17:30:23;12.30;;;3.70;;
51489;SDS011;57752;53.574;9.736;2023-08-06T17:35:23;12.05;;;3.78;;
51489;SDS011;57752;53.574;9.736;2023-08-06T17:40:24;11.45;;;3.80;;
51489;SDS011;57752;53.574;9.736;2023-08-06T17:45:24;10.27;;;3.85;;
51489;SDS011;57752;53.574;9.736;2023-08-06T17:50:24;10.38;;;3.95;;
51489;SDS011;57752;53.574;9.736;2023-08-06T17:55:24;13.57;;;3.70;;
51489;SDS011;57752;53.574;9.736;2023-08-06T18:00:26;13.07;;;3.40;;
51489;SDS011;57752;53.574;9.736;2023-08-06T18:05:26;11.60;;;3.97;;
51489;SDS011;57752;53.574;9.736;2023-08-06T18:10:30;11.18;;;3.97;;
51489;SDS011;57752;53.574;9.736;2023-08-06T18:15:30;11.75;;;3.70;;
51489;SDS011;57752;53.574;9.736;2023-08-06T18:20:31;12.63;;;3.58;;
51489;SDS011;57752;53.574;9.736;2023-08-06T18:25:31;11.18;;;4.07;;
51489;SDS011;57752;53.574;9.736;2023-08-06T18:30:31;10.13;;;3.85;;
51489;SDS011;57752;53.574;9.736;2023-08-06T18:35:34;14.63;;;4.15;;
51489;SDS011;57752;53.574;9.736;2023-08-06T18:40:34;10.15;;;3.75;;
51489;SDS011;57752;53.574;9.736;2023-08-06T18:45:34;10.07;;;3.88;;
51489;SDS011;57752;53.574;9.736;2023-08-06T18:50:39;11.88;;;4.05;;
51489;SDS011;57752;53.574;9.736;2023-08-06T18:55:45;10.80;;;4.00;;
51489;SDS011;57752;53.574;9.736;2023-08-06T19:00:45;10.52;;;3.80;;
51489;SDS011;57752;53.574;9.736;2023-08-06T19:05:45;11.32;;;3.72;;
51489;SDS011;57752;53.574;9.736;2023-08-06T19:10:45;10.82;;;3.80;;
51489;SDS011;57752;53.574;9.736;2023-08-06T19:15:46;12.32;;;4.35;;
51489;SDS011;57752;53.574;9.736;2023-08-06T19:20:46;13.18;;;4.25;;
51489;SDS011;57752;53.574;9.736;2023-08-06T19:25:46;11.35;;;4.35;;
51489;SDS011;57752;53.574;9.736;2023-08-06T19:30:48;11.73;;;4.20;;
51489;SDS011;57752;53.574;9.736;2023-08-06T19:35:50;12.50;;;4.50;;
51489;SDS011;57752;53.574;9.736;2023-08-06T19:40:51;11.65;;;4.15;;
51489;SDS011;57752;53.574;9.736;2023-08-06T19:45:51;14.25;;;4.95;;
51489;SDS011;57752;53.574;9.736;2023-08-06T19:50:52;11.75;;;4.28;;
51489;SDS011;57752;53.574;9.736;2023-08-06T19:55:53;11.27;;;3.93;;
51489;SDS011;57752;53.574;9.736;2023-08-06T20:00:54;13.45;;;4.25;;
51489;SDS011;57752;53.574;9.736;2023-08-06T20:05:54;14.52;;;4.53;;
51489;SDS011;57752;53.574;9.736;2023-08-06T20:10:54;11.68;;;4.97;;
51489;SDS011;57752;53.574;9.736;2023-08-06T20:15:57;10.85;;;4.68;;
51489;SDS011;57752;53.574;9.736;2023-08-06T20:20:57;12.93;;;5.43;;
51489;SDS011;57752;53.574;9.736;2023-08-06T20:25:57;14.68;;;4.78;;
51489;SDS011;57752;53.574;9.736;2023-08-06T20:30:57;14.20;;;5.10;;
51489;SDS011;57752;53.574;9.736;2023-08-06T20:35:58;11.70;;;4.33;;
51489;SDS011;57752;53.574;9.736;2023-08-06T20:40:58;12.43;;;4.70;;
51489;SDS011;57752;53.574;9.736;2023-08-06T20:45:58;13.20;;;4.88;;
51489;SDS011;57752;53.574;9.736;2023-08-06T20:51:00;12.57;;;5.40;;
51489;SDS011;57752;53.574;9.736;2023-08-06T20:56:00;12.52;;;4.97;;
51489;SDS011;57752;53.574;9.736;2023-08-06T21:01:01;11.57;;;4.85;;
51489;SDS011;57752;53.574;9.736;2023-08-06T21:06:01;13.15;;;4.65;;
51489;SDS011;57752;53.574;9.736;2023-08-06T21:11:02;11.88;;;4.82;;
51489;SDS011;57752;53.574;9.736;2023-08-06T21:16:03;12.82;;;4.82;;
51489;SDS011;57752;53.574;9.736;2023-08-06T21:21:03;10.68;;;4.72;;
51489;SDS011;57752;53.574;9.736;2023-08-06T21:26:04;11.95;;;4.72;;
51489;SDS011;57752;53.574;9.736;2023-08-06T21:31:07;11.00;;;4.63;;
51489;SDS011;57752;53.574;9.736;2023-08-06T21:36:07;12.73;;;5.07;;
51489;SDS011;57752;53.574;9.736;2023-08-06T21:41:09;14.32;;;5.30;;
51489;SDS011;57752;53.574;9.736;2023-08-06T21:46:10;12.90;;;5.43;;
51489;SDS011;57752;53.574;9.736;2023-08-06T21:51:12;12.80;;;4.97;;
51489;SDS011;57752;53.574;9.736;2023-08-06T21:56:13;11.80;;;4.65;;
51489;SDS011;57752;53.574;9.736;2023-08-06T22:01:13;12.10;;;5.18;;
51489;SDS011;57752;53.574;9.736;2023-08-06T22:06:14;12.48;;;5.25;;
51489;SDS011;57752;53.574;9.736;2023-08-06T22:11:14;11.90;;;4.65;;
51489;SDS011;57752;53.574;9.736;2023-08-06T22:16:14;13.57;;;5.00;;
51489;SDS011;57752;53.574;9.736;2023-08-06T22:21:14;11.05;;;4.35;;
51489;SDS011;57752;53.574;9.736;2023-08-06T22:26:15;11.75;;;4.43;;
51489;SDS011;57752;53.574;9.736;2023-08-06T22:31:15;11.38;;;4.57;;
51489;SDS011;57752;53.574;9.736;2023-08-06T22:36:15;14.63;;;4.13;;
51489;SDS011;57752;53.574;9.736;2023-08-06T22:41:15;11.65;;;4.35;;
51489;SDS011;57752;53.574;9.736;2023-08-06T22:46:16;13.98;;;4.35;;
51489;SDS011;57752;53.574;9.736;2023-08-06T22:51:16;11.95;;;4.07;;
51489;SDS011;57752;53.574;9.736;2023-08-06T22:56:16;11.77;;;3.88;;
51489;SDS011;57752;53.574;9.736;2023-08-06T23:01:16;10.13;;;4.00;;
51489;SDS011;57752;53.574;9.736;2023-08-06T23:06:17;11.00;;;3.60;;
51489;SDS011;57752;53.574;9.736;2023-08-06T23:11:17;11.40;;;4.00;;
51489;SDS011;57752;53.574;9.736;2023-08-06T23:16:17;12.93;;;3.75;;
51489;SDS011;57752;53.574;9.736;2023-08-06T23:21:17;15.80;;;4.03;;
51489;SDS011;57752;53.574;9.736;2023-08-06T23:26:17;11.80;;;3.78;;
51489;SDS011;57752;53.574;9.736;2023-08-06T23:31:21;10.68;;;3.90;;
51489;SDS011;57752;53.574;9.736;2023-08-06T23:36:21;11.25;;;4.15;;
51489;SDS011;57752;53.574;9.736;2023-08-06T23:41:21;12.50;;;4.38;;
51489;SDS011;57752;53.574;9.736;2023-08-06T23:46:23;10.23;;;3.90;;
51489;SDS011;57752;53.574;9.736;2023-08-06T23:51:24;11.13;;;3.95;;
51489;SDS011;57752;53.574;9.736;2023-08-06T23:56:25;12.07;;;3.75;;
